Terminal Aerodrome Forecast
Issued by NWS

Home | Current Version | Previous Version | Text Only | Print | Product List | Glossary Off
Versions: 1 2 3 4 5 6 7 8 9 10 11 12 13 14 15 16 17 18 19 20 21 22 23 24 25 26 27 28 29 30 31 32 33 34 35

000
FTUS43 KGRB 271720
TAFRHI
TAF
KRHI 271720Z 2718/2818 VRB03KT P6SM SKC
     FM271900 VRB03KT P6SM BKN050
     FM280100 VRB03KT P6SM SCT070
     FM281600 17009KT P6SM SCT050 BKN100=

USA.gov is the U.S. government's official web portal to all federal, state and local government web resources and services.